createdAt,value
2023-04-17T00:00:49.478Z,10.07
2023-04-17T00:04:15.119Z,10.06
2023-04-17T00:07:41.072Z,10.15
2023-04-17T00:11:28.696Z,10.18
2023-04-17T00:15:06.148Z,10.23
2023-04-17T00:18:53.601Z,10.15
2023-04-17T00:22:40.704Z,10.08
2023-04-17T00:26:28.142Z,10.08
2023-04-17T00:30:15.593Z,10.02
2023-04-17T00:34:03.077Z,9.96
2023-04-17T00:37:40.069Z,9.91
2023-04-17T00:41:16.021Z,9.90
2023-04-17T00:45:03.437Z,9.92
2023-04-17T00:48:50.867Z,9.92
2023-04-17T00:52:38.972Z,9.92
2023-04-17T00:56:16.639Z,9.94
2023-04-17T01:00:04.049Z,9.95
2023-04-17T01:03:45.709Z,9.96
2023-04-17T01:07:33.287Z,10.00
2023-04-17T01:11:19.487Z,9.97
2023-04-17T01:15:03.380Z,9.98
2023-04-17T01:18:49.714Z,9.86
2023-04-17T01:22:18.678Z,9.84
2023-04-17T01:26:06.123Z,9.83
2023-04-17T01:29:53.732Z,9.78
2023-04-17T01:33:41.220Z,9.69
2023-04-17T01:37:28.723Z,9.68
2023-04-17T01:41:16.471Z,9.62
2023-04-17T01:45:03.925Z,9.67
2023-04-17T01:48:23.229Z,9.67
2023-04-17T01:52:00.626Z,9.70
2023-04-17T01:55:30.846Z,9.73
2023-04-17T01:59:18.353Z,9.76
2023-04-17T02:03:05.857Z,9.80
2023-04-17T02:06:52.369Z,9.74
2023-04-17T02:10:32.406Z,9.72
2023-04-17T02:14:12.745Z,9.75
2023-04-17T02:17:59.309Z,9.77
2023-04-17T02:21:46.804Z,9.72
2023-04-17T02:25:20.696Z,9.70
2023-04-17T02:28:51.908Z,9.65
2023-04-17T02:32:39.433Z,9.60
2023-04-17T02:36:10.756Z,9.62
2023-04-17T02:39:58.332Z,9.61
2023-04-17T02:43:34.349Z,9.58
2023-04-17T02:47:21.851Z,9.54
2023-04-17T02:51:09.483Z,9.46
2023-04-17T02:54:50.529Z,9.40
2023-04-17T02:58:25.673Z,9.50
2023-04-17T03:02:03.190Z,9.51
2023-04-17T03:05:26.396Z,9.41
2023-04-17T03:09:14.214Z,9.38
2023-04-17T03:13:00.357Z,9.45
2023-04-17T03:16:30.354Z,9.41
2023-04-17T03:20:17.816Z,9.32
2023-04-17T03:23:46.789Z,9.30
2023-04-17T03:27:26.843Z,9.32
2023-04-17T03:30:58.461Z,9.35
2023-04-17T03:34:45.955Z,9.32
2023-04-17T03:38:33.582Z,9.33
2023-04-17T03:42:20.994Z,9.36
2023-04-17T03:46:00.147Z,9.29
2023-04-17T03:49:47.667Z,9.23
2023-04-17T03:53:27.490Z,9.24
2023-04-17T03:57:14.893Z,9.24
2023-04-17T04:00:47.880Z,9.24
2023-04-17T04:04:29.271Z,9.22
2023-04-17T04:08:16.924Z,9.13
2023-04-17T04:12:00.183Z,9.13
2023-04-17T04:15:40.546Z,9.07
2023-04-17T04:19:13.368Z,9.09
2023-04-17T04:22:58.996Z,9.11
2023-04-17T04:26:40.235Z,9.13
2023-04-17T04:30:27.820Z,9.13
2023-04-17T04:33:54.278Z,9.12
2023-04-17T04:37:36.572Z,9.11
2023-04-17T04:41:24.661Z,9.07
2023-04-17T04:45:11.331Z,9.11
2023-04-17T04:48:58.815Z,9.06
2023-04-17T04:52:46.792Z,9.04
2023-04-17T04:56:37.645Z,9.02
2023-04-17T05:00:05.914Z,9.00
2023-04-17T05:03:28.569Z,8.98
2023-04-17T05:07:19.069Z,8.96
2023-04-17T05:10:32.599Z,8.97
2023-04-17T05:14:20.324Z,9.02
2023-04-17T05:18:07.842Z,9.03
2023-04-17T05:21:31.271Z,9.03
2023-04-17T05:25:17.591Z,9.07
2023-04-17T05:29:04.674Z,9.18
2023-04-17T05:32:34.760Z,9.15
2023-04-17T05:36:22.400Z,9.17
2023-04-17T05:40:06.028Z,9.20
2023-04-17T05:43:53.485Z,9.24
2023-04-17T05:47:23.273Z,9.35
2023-04-17T05:50:38.116Z,9.36
2023-04-17T05:54:15.777Z,9.42
2023-04-17T05:57:47.604Z,9.52
2023-04-17T06:01:35.150Z,9.83
2023-04-17T06:05:21.283Z,9.73
2023-04-17T06:09:08.789Z,9.84
2023-04-17T06:12:22.827Z,9.81
2023-04-17T06:15:51.401Z,9.83
2023-04-17T06:19:31.315Z,9.97
2023-04-17T06:23:23.187Z,9.93
2023-04-17T06:26:55.245Z,10.17
2023-04-17T06:30:42.881Z,10.16
2023-04-17T06:34:03.403Z,10.23
2023-04-17T06:37:50.913Z,10.14
2023-04-17T06:41:20.219Z,10.19
2023-04-17T06:44:58.735Z,10.15
2023-04-17T06:48:46.403Z,10.12
2023-04-17T06:52:27.623Z,10.25
2023-04-17T06:56:07.465Z,10.44
2023-04-17T06:59:55.229Z,10.27
2023-04-17T07:03:31.786Z,10.09
2023-04-17T07:07:19.578Z,10.00
2023-04-17T07:11:07.183Z,10.07
2023-04-17T07:14:47.167Z,10.06
2023-04-17T07:18:33.080Z,10.06
2023-04-17T07:22:01.741Z,10.06
2023-04-17T07:25:24.516Z,10.13
2023-04-17T07:28:56.081Z,10.21
2023-04-17T07:32:36.518Z,10.28
2023-04-17T07:36:22.796Z,10.30
2023-04-17T07:39:50.855Z,10.07
2023-04-17T07:43:29.504Z,10.18
2023-04-17T07:47:12.092Z,10.22
2023-04-17T07:50:59.761Z,10.12
2023-04-17T07:54:32.294Z,10.02
2023-04-17T07:58:05.548Z,10.10
2023-04-17T08:01:29.018Z,10.26
2023-04-17T08:05:16.846Z,10.37
2023-04-17T08:09:04.086Z,10.19
2023-04-17T08:12:52.600Z,9.97
2023-04-17T08:16:41.389Z,10.00
2023-04-17T08:20:19.316Z,10.08
2023-04-17T08:24:01.732Z,10.04
2023-04-17T08:27:49.931Z,10.11
2023-04-17T08:31:33.238Z,10.09
2023-04-17T08:35:01.548Z,10.09
2023-04-17T08:38:32.602Z,10.19
2023-04-17T08:42:22.550Z,10.28
2023-04-17T08:45:58.744Z,10.40
2023-04-17T08:49:48.095Z,10.41
2023-04-17T08:53:28.519Z,10.50
2023-04-17T08:56:58.660Z,10.51
2023-04-17T09:00:39.694Z,10.45
2023-04-17T09:04:28.635Z,10.67
2023-04-17T09:08:18.347Z,10.59
2023-04-17T09:12:05.866Z,10.72
2023-04-17T09:15:56.170Z,11.04
2023-04-17T09:19:33.909Z,11.65
2023-04-17T09:23:17.136Z,11.71
2023-04-17T09:27:10.362Z,11.99
2023-04-17T09:30:57.910Z,11.90
2023-04-17T09:34:51.876Z,11.49
2023-04-17T09:38:48.729Z,11.50
2023-04-17T09:42:40.875Z,11.80
2023-04-17T09:46:28.657Z,11.81
2023-04-17T09:50:21.124Z,11.89
2023-04-17T09:54:01.576Z,12.19
2023-04-17T09:57:42.204Z,12.34
2023-04-17T10:01:31.247Z,12.18
2023-04-17T10:05:21.186Z,12.35
2023-04-17T10:09:07.791Z,12.07
2023-04-17T10:12:55.330Z,11.94
2023-04-17T10:16:36.247Z,12.00
2023-04-17T10:20:26.573Z,12.01
2023-04-17T10:28:48.221Z,12.22
2023-04-17T10:32:33.074Z,12.64
2023-04-17T10:36:10.749Z,12.68
2023-04-17T10:39:56.700Z,12.50
2023-04-17T10:43:43.834Z,12.35
2023-04-17T10:47:22.649Z,12.55
2023-04-17T10:50:57.281Z,12.60
2023-04-17T10:54:46.388Z,12.75
2023-04-17T10:58:35.918Z,12.88
2023-04-17T11:02:11.907Z,12.87
2023-04-17T11:05:33.876Z,12.97
2023-04-17T11:09:03.743Z,13.08
2023-04-17T11:12:41.721Z,12.96
2023-04-17T11:16:28.962Z,13.18
2023-04-17T11:20:19.781Z,13.20
2023-04-17T11:23:43.196Z,13.45
2023-04-17T11:27:20.677Z,13.23
2023-04-17T11:31:07.406Z,13.41
2023-04-17T11:34:44.896Z,13.51
2023-04-17T11:38:50.291Z,13.63
2023-04-17T11:42:37.820Z,13.46
2023-04-17T11:46:26.234Z,13.76
2023-04-17T11:50:13.797Z,13.84
2023-04-17T11:53:44.179Z,14.05
2023-04-17T11:57:24.522Z,14.06
2023-04-17T12:01:12.104Z,13.84
2023-04-17T12:04:52.170Z,13.66
2023-04-17T12:08:42.731Z,13.50
2023-04-17T12:12:18.295Z,13.59
2023-04-17T12:16:06.455Z,13.96
2023-04-17T12:19:44.800Z,13.93
2023-04-17T12:23:33.503Z,13.89
2023-04-17T12:27:26.468Z,13.89
2023-04-17T12:31:14.786Z,14.02
2023-04-17T12:35:02.584Z,14.46
2023-04-17T12:38:50.278Z,14.69
2023-04-17T12:42:46.465Z,14.05
2023-04-17T12:46:46.852Z,13.86
2023-04-17T12:50:35.791Z,14.19
2023-04-17T12:54:22.404Z,13.83
2023-04-17T12:58:13.942Z,13.64
2023-04-17T13:01:58.114Z,14.17
2023-04-17T13:05:48.346Z,14.77
2023-04-17T13:09:01.540Z,14.60
2023-04-17T13:12:50.178Z,14.42
2023-04-17T13:16:20.860Z,14.90
2023-04-17T13:20:01.794Z,15.21
2023-04-17T13:23:49.435Z,15.11
2023-04-17T13:27:27.487Z,14.75
2023-04-17T13:31:16.316Z,14.96
2023-04-17T13:35:04.577Z,15.15
2023-04-17T13:38:52.439Z,15.21
2023-04-17T13:42:40.170Z,15.12
2023-04-17T13:46:03.573Z,15.31
2023-04-17T13:49:36.418Z,16.15
2023-04-17T13:53:12.302Z,15.65
2023-04-17T13:56:50.953Z,15.13
2023-04-17T13:59:52.177Z,14.86
2023-04-17T14:03:16.244Z,14.95
2023-04-17T14:06:56.132Z,15.15
2023-04-17T14:10:36.793Z,14.49
2023-04-17T14:14:19.116Z,14.20
2023-04-17T14:18:06.770Z,14.33
2023-04-17T14:21:54.221Z,14.25
2023-04-17T14:25:35.226Z,14.42
2023-04-17T14:29:13.736Z,15.08
2023-04-17T14:33:03.065Z,15.45
2023-04-17T14:36:51.082Z,15.09
2023-04-17T14:40:25.126Z,14.71
2023-04-17T14:44:12.314Z,14.77
2023-04-17T14:48:00.853Z,14.71
2023-04-17T14:51:23.796Z,14.50
2023-04-17T14:55:11.418Z,14.26
2023-04-17T14:59:01.795Z,14.06
2023-04-17T15:02:50.043Z,14.05
2023-04-17T15:06:28.315Z,13.97
2023-04-17T15:10:19.655Z,14.05
2023-04-17T15:14:07.951Z,14.18
2023-04-17T15:17:48.826Z,14.24
2023-04-17T15:21:34.498Z,14.22
2023-04-17T15:25:21.973Z,14.38
2023-04-17T15:29:02.511Z,14.19
2023-04-17T15:32:27.538Z,13.94
2023-04-17T15:36:17.441Z,13.85
2023-04-17T15:39:58.357Z,13.89
2023-04-17T15:43:39.452Z,13.78
2023-04-17T15:47:27.974Z,13.84
2023-04-17T15:50:47.939Z,13.95
2023-04-17T15:54:35.411Z,13.89
2023-04-17T15:58:15.900Z,14.12
2023-04-17T16:02:03.928Z,14.20
2023-04-17T16:05:54.091Z,14.18
2023-04-17T16:09:40.689Z,14.07
2023-04-17T16:13:19.333Z,14.28
2023-04-17T16:17:08.403Z,14.03
2023-04-17T16:20:45.517Z,14.16
2023-04-17T16:24:23.674Z,14.01
2023-04-17T16:28:11.378Z,13.81
2023-04-17T16:31:59.916Z,13.75
2023-04-17T16:35:48.352Z,13.91
2023-04-17T16:39:37.004Z,13.91
2023-04-17T16:43:25.368Z,13.75
2023-04-17T16:47:14.619Z,13.39
2023-04-17T16:50:55.163Z,13.20
2023-04-17T16:54:43.702Z,13.07
2023-04-17T16:58:12.957Z,13.00
2023-04-17T17:01:44.376Z,12.99
2023-04-17T17:05:22.338Z,12.93
2023-04-17T17:09:08.958Z,12.79
2023-04-17T17:12:56.664Z,12.70
2023-04-17T17:16:44.929Z,12.61
2023-04-17T17:20:33.631Z,12.65
2023-04-17T17:24:21.311Z,12.58
2023-04-17T17:28:09.058Z,12.49
2023-04-17T17:31:51.309Z,12.40
2023-04-17T17:35:39.307Z,12.33
2023-04-17T17:39:20.455Z,12.24
2023-04-17T17:43:08.798Z,12.10
2023-04-17T17:46:35.445Z,12.02
2023-04-17T17:50:12.368Z,11.97
2023-04-17T17:53:57.262Z,11.76
2023-04-17T17:56:57.486Z,11.63
2023-04-17T18:00:28.532Z,11.65
2023-04-17T18:04:16.459Z,11.55
2023-04-17T18:07:32.768Z,11.42
2023-04-17T18:10:31.320Z,11.34
2023-04-17T18:13:55.877Z,11.31
2023-04-17T18:17:26.918Z,11.31
2023-04-17T18:21:11.207Z,11.25
2023-04-17T18:24:48.191Z,11.13
2023-04-17T18:28:25.131Z,11.01
2023-04-17T18:31:38.950Z,11.02
2023-04-17T18:35:25.634Z,11.00
2023-04-17T18:39:04.048Z,10.96
2023-04-17T18:42:34.819Z,10.91
2023-04-17T18:46:17.842Z,10.79
2023-04-17T18:49:51.837Z,10.66
2023-04-17T18:53:23.434Z,10.60
2023-04-17T18:57:15.219Z,10.53
2023-04-17T19:00:47.369Z,10.53
2023-04-17T19:04:27.154Z,10.44
2023-04-17T19:08:09.644Z,10.39
2023-04-17T19:11:49.249Z,10.32
2023-04-17T19:15:37.222Z,10.32
2023-04-17T19:19:20.997Z,10.24
2023-04-17T19:22:19.836Z,10.25
2023-04-17T19:25:57.749Z,10.25
2023-04-17T19:29:44.026Z,10.12
2023-04-17T19:33:21.941Z,10.10
2023-04-17T19:37:13.986Z,10.02
2023-04-17T19:41:00.006Z,9.97
2023-04-17T19:44:32.709Z,9.93
2023-04-17T19:48:04.951Z,9.94
2023-04-17T19:51:53.865Z,10.03
2023-04-17T19:55:07.841Z,10.11
2023-04-17T19:58:51.374Z,10.18
2023-04-17T20:02:22.581Z,10.20
2023-04-17T20:06:03.380Z,10.23
2023-04-17T20:09:52.548Z,10.26
2023-04-17T20:13:40.744Z,10.18
2023-04-17T20:17:27.648Z,10.16
2023-04-17T20:20:46.971Z,10.14
2023-04-17T20:24:28.259Z,10.04
2023-04-17T20:28:11.336Z,9.94
2023-04-17T20:31:44.020Z,9.84
2023-04-17T20:35:04.820Z,9.75
2023-04-17T20:38:47.300Z,9.73
2023-04-17T20:42:37.250Z,9.76
2023-04-17T20:46:24.437Z,9.66
2023-04-17T20:50:12.737Z,9.65
2023-04-17T20:53:45.765Z,9.62
2023-04-17T20:57:22.386Z,9.62
2023-04-17T21:01:10.958Z,9.57
2023-04-17T21:04:58.846Z,9.57
2023-04-17T21:08:29.257Z,9.59
2023-04-17T21:12:17.148Z,9.56
2023-04-17T21:16:02.332Z,9.61
2023-04-17T21:19:50.256Z,9.67
2023-04-17T21:23:38.733Z,9.70
2023-04-17T21:27:26.840Z,9.72
2023-04-17T21:31:08.036Z,9.70
2023-04-17T21:34:46.895Z,9.67
2023-04-17T21:38:30.621Z,9.65
2023-04-17T21:42:18.734Z,9.64
2023-04-17T21:46:06.745Z,9.63
2023-04-17T21:49:38.386Z,9.55
2023-04-17T21:53:25.942Z,9.58
2023-04-17T21:57:15.273Z,9.58
2023-04-17T22:00:40.730Z,9.53
2023-04-17T22:04:05.453Z,9.50
2023-04-17T22:07:55.395Z,9.49
2023-04-17T22:11:43.431Z,9.48
2023-04-17T22:15:22.329Z,9.44
2023-04-17T22:19:06.524Z,9.42
2023-04-17T22:22:45.441Z,9.41
2023-04-17T22:26:34.801Z,9.40
2023-04-17T22:30:22.675Z,9.34
2023-04-17T22:33:57.627Z,9.28
2023-04-17T22:37:27.993Z,9.36
2023-04-17T22:41:09.114Z,9.41
2023-04-17T22:44:56.697Z,9.38
2023-04-17T22:48:24.393Z,9.28
2023-04-17T22:52:01.578Z,9.26
2023-04-17T22:55:49.584Z,9.32
2023-04-17T22:59:27.360Z,9.31
2023-04-17T23:07:16.770Z,9.28
2023-04-17T23:11:04.491Z,9.21
2023-04-17T23:14:51.244Z,9.20
2023-04-17T23:18:40.822Z,9.21
2023-04-17T23:22:27.119Z,9.25
2023-04-17T23:25:58.358Z,9.20
2023-04-17T23:29:46.001Z,9.24
2023-04-17T23:33:33.694Z,9.25
2023-04-17T23:37:13.777Z,9.21
2023-04-17T23:40:51.621Z,9.19
2023-04-17T23:44:32.555Z,9.21
2023-04-17T23:48:02.683Z,9.18
2023-04-17T23:51:34.066Z,9.20
2023-04-17T23:55:06.920Z,9.21
2023-04-17T23:58:54.544Z,9.21
